createdAt,value
2019-02-02T00:02:32.387Z,18.37
2019-02-02T00:05:35.988Z,18.67
2019-02-02T00:08:39.575Z,17.83
2019-02-02T00:11:43.107Z,18.37
2019-02-02T00:14:46.677Z,19.00
2019-02-02T00:17:50.511Z,18.20
2019-02-02T00:20:54.177Z,18.87
2019-02-02T00:23:58.069Z,18.77
2019-02-02T00:27:01.935Z,17.87
2019-02-02T00:30:07.917Z,17.83
2019-02-02T00:33:11.545Z,17.10
2019-02-02T00:36:15.389Z,18.53
2019-02-02T00:39:19.508Z,18.13
2019-02-02T00:42:23.420Z,18.70
2019-02-02T00:45:27.297Z,18.27
2019-02-02T00:48:31.230Z,17.53
2019-02-02T00:51:35.122Z,17.80
2019-02-02T00:54:38.734Z,17.80
2019-02-02T00:57:52.994Z,17.90
2019-02-02T01:00:48.448Z,16.90
2019-02-02T01:03:52.047Z,17.60
2019-02-02T01:06:55.672Z,17.13
2019-02-02T01:09:59.605Z,17.13
2019-02-02T01:13:03.402Z,17.93
2019-02-02T01:16:07.400Z,17.77
2019-02-02T01:19:11.000Z,17.07
2019-02-02T01:22:14.857Z,17.13
2019-02-02T01:25:18.852Z,16.77
2019-02-02T01:28:22.420Z,16.80
2019-02-02T01:31:26.278Z,17.90
2019-02-02T01:34:30.479Z,16.60
2019-02-02T01:37:34.416Z,17.23
2019-02-02T01:40:38.510Z,16.70
2019-02-02T01:43:42.458Z,16.47
2019-02-02T01:46:46.059Z,16.67
2019-02-02T01:49:49.658Z,16.77
2019-02-02T01:52:53.283Z,15.90
2019-02-02T01:55:57.456Z,17.00
2019-02-02T01:59:01.384Z,17.37
2019-02-02T02:02:05.139Z,15.77
2019-02-02T02:05:09.528Z,16.70
2019-02-02T02:08:13.722Z,16.87
2019-02-02T02:11:17.323Z,16.30
2019-02-02T02:14:21.326Z,16.43
2019-02-02T02:17:25.289Z,16.70
2019-02-02T02:20:29.174Z,16.60
2019-02-02T02:23:33.373Z,16.73
2019-02-02T02:26:37.402Z,16.40
2019-02-02T02:29:41.447Z,17.10
2019-02-02T02:32:45.114Z,16.60
2019-02-02T02:35:49.074Z,16.07
2019-02-02T02:38:56.302Z,16.13
2019-02-02T02:42:00.151Z,16.57
2019-02-02T02:45:04.260Z,15.50
2019-02-02T02:48:08.342Z,15.50
2019-02-02T02:51:12.183Z,16.13
2019-02-02T02:54:15.891Z,17.07
2019-02-02T02:57:19.792Z,16.37
2019-02-02T03:00:25.205Z,17.20
2019-02-02T03:03:28.787Z,16.47
2019-02-02T03:06:33.288Z,16.37
2019-02-02T03:09:36.861Z,15.93
2019-02-02T03:12:40.718Z,16.50
2019-02-02T03:15:44.308Z,16.13
2019-02-02T03:18:47.894Z,16.50
2019-02-02T03:21:51.838Z,16.10
2019-02-02T03:24:55.654Z,15.47
2019-02-02T03:27:59.274Z,16.40
2019-02-02T03:31:02.866Z,14.97
2019-02-02T03:34:06.438Z,16.70
2019-02-02T03:37:10.166Z,16.40
2019-02-02T03:40:18.399Z,15.93
2019-02-02T03:43:22.288Z,15.50
2019-02-02T03:46:26.165Z,16.10
2019-02-02T03:49:29.762Z,16.30
2019-02-02T03:52:33.999Z,14.87
2019-02-02T03:55:37.909Z,16.23
2019-02-02T03:58:41.659Z,16.60
2019-02-02T04:01:45.269Z,16.07
2019-02-02T04:04:48.891Z,16.47
2019-02-02T04:07:53.272Z,16.17
2019-02-02T04:10:57.460Z,15.17
2019-02-02T04:14:01.044Z,15.73
2019-02-02T04:17:04.980Z,15.73
2019-02-02T04:20:12.443Z,16.13
2019-02-02T04:23:16.011Z,30.63
2019-02-02T04:26:19.604Z,51.23
2019-02-02T04:29:23.508Z,27.63
2019-02-02T04:32:27.395Z,32.83
2019-02-02T04:35:31.313Z,31.47
2019-02-02T04:38:35.235Z,30.90
2019-02-02T04:41:38.799Z,29.67
2019-02-02T04:44:42.376Z,28.80
2019-02-02T04:47:46.017Z,26.77
2019-02-02T04:50:49.602Z,26.63
2019-02-02T04:53:53.430Z,26.50
2019-02-02T04:56:57.064Z,25.10
2019-02-02T05:00:00.971Z,23.90
2019-02-02T05:03:05.297Z,23.70
2019-02-02T05:06:08.883Z,23.67
2019-02-02T05:09:12.764Z,23.27
2019-02-02T05:12:16.341Z,22.80
2019-02-02T05:15:20.335Z,22.80
2019-02-02T05:18:23.896Z,22.67
2019-02-02T05:21:27.698Z,22.67
2019-02-02T05:24:31.256Z,21.23
2019-02-02T05:27:34.836Z,21.70
2019-02-02T05:30:38.743Z,20.83
2019-02-02T05:33:42.565Z,22.03
2019-02-02T05:36:46.125Z,21.27
2019-02-02T05:39:49.714Z,21.73
2019-02-02T05:42:54.008Z,20.63
2019-02-02T05:45:57.572Z,20.83
2019-02-02T05:49:01.401Z,19.90
2019-02-02T05:52:05.047Z,20.97
2019-02-02T05:55:10.234Z,20.97
2019-02-02T05:58:14.166Z,20.70
2019-02-02T06:01:20.041Z,20.57
2019-02-02T06:04:23.646Z,19.57
2019-02-02T06:07:27.487Z,19.40
2019-02-02T06:10:31.134Z,19.47
2019-02-02T06:13:34.713Z,19.30
2019-02-02T06:16:38.521Z,18.63
2019-02-02T06:19:42.642Z,18.60
2019-02-02T06:22:46.993Z,19.23
2019-02-02T06:25:50.818Z,19.53
2019-02-02T06:28:54.444Z,18.77
2019-02-02T06:31:58.326Z,19.37
2019-02-02T06:35:01.903Z,20.33
2019-02-02T06:38:05.737Z,18.90
2019-02-02T06:41:09.616Z,17.73
2019-02-02T06:44:13.452Z,19.27
2019-02-02T06:47:17.047Z,19.33
2019-02-02T06:50:21.280Z,19.43
2019-02-02T06:53:25.165Z,18.20
2019-02-02T06:56:28.724Z,19.03
2019-02-02T06:59:32.712Z,18.97
2019-02-02T07:02:36.297Z,19.30
2019-02-02T07:05:39.874Z,19.47
2019-02-02T07:08:43.726Z,18.97
2019-02-02T07:11:47.636Z,20.07
2019-02-02T07:14:51.639Z,18.57
2019-02-02T07:17:55.325Z,19.63
2019-02-02T07:20:58.873Z,18.63
2019-02-02T07:24:02.449Z,19.27
2019-02-02T07:27:06.316Z,19.13
2019-02-02T07:30:13.082Z,18.60
2019-02-02T07:33:17.185Z,19.00
2019-02-02T07:36:20.850Z,18.23
2019-02-02T07:39:24.697Z,18.50
2019-02-02T07:42:28.546Z,18.07
2019-02-02T07:45:32.472Z,17.73
2019-02-02T07:48:36.419Z,19.23
2019-02-02T07:51:40.013Z,19.80
2019-02-02T07:54:44.046Z,18.40
2019-02-02T07:57:48.138Z,18.30
2019-02-02T08:00:52.355Z,18.40
2019-02-02T08:03:56.259Z,18.77
2019-02-02T08:07:00.145Z,18.83
2019-02-02T08:10:05.502Z,18.60
2019-02-02T08:13:09.185Z,19.20
2019-02-02T08:16:12.773Z,19.17
2019-02-02T08:19:16.359Z,18.00
2019-02-02T08:22:19.911Z,19.57
2019-02-02T08:25:25.746Z,18.40
2019-02-02T08:28:29.503Z,18.30
2019-02-02T08:31:33.082Z,39.70
2019-02-02T08:34:36.694Z,47.17
2019-02-02T08:37:40.387Z,30.47
2019-02-02T08:40:43.966Z,29.93
2019-02-02T08:43:47.575Z,29.77
2019-02-02T08:46:51.764Z,27.63
2019-02-02T08:49:55.357Z,28.33
2019-02-02T08:52:59.026Z,26.90
2019-02-02T08:56:02.684Z,24.93
2019-02-02T08:59:06.333Z,25.37
2019-02-02T09:02:10.283Z,26.00
2019-02-02T09:05:15.226Z,24.77
2019-02-02T09:08:18.860Z,24.10
2019-02-02T09:11:22.834Z,23.60
2019-02-02T09:14:26.870Z,23.93
2019-02-02T09:17:30.545Z,23.43
2019-02-02T09:20:34.201Z,199.27
2019-02-02T09:23:37.993Z,56.67
2019-02-02T09:26:41.671Z,201.67
2019-02-02T09:29:47.840Z,56.77
2019-02-02T09:32:53.710Z,56.50
2019-02-02T09:35:59.910Z,56.63
2019-02-02T09:39:09.880Z,55.13
2019-02-02T09:42:14.736Z,53.03
2019-02-02T09:45:21.997Z,49.90
2019-02-02T09:48:29.202Z,46.37
2019-02-02T09:51:35.031Z,45.70
2019-02-02T09:54:43.346Z,42.63
2019-02-02T09:58:00.775Z,41.17
2019-02-02T10:01:07.223Z,40.13
2019-02-02T10:04:12.759Z,39.63
2019-02-02T10:07:16.457Z,38.60
2019-02-02T10:10:22.115Z,58.93
2019-02-02T10:13:25.722Z,63.90
2019-02-02T10:16:29.422Z,63.63
2019-02-02T10:19:32.999Z,60.90
2019-02-02T10:22:37.277Z,60.53
2019-02-02T10:25:41.018Z,56.60
2019-02-02T10:28:49.959Z,53.30
2019-02-02T10:32:01.932Z,53.47
2019-02-02T10:35:07.792Z,50.77
2019-02-02T10:38:12.031Z,50.73
2019-02-02T10:41:16.402Z,50.77
2019-02-02T10:44:20.034Z,47.47
2019-02-02T10:47:24.260Z,47.87
2019-02-02T10:50:28.065Z,47.67
2019-02-02T10:53:31.698Z,44.93
2019-02-02T10:56:36.002Z,43.83
2019-02-02T10:59:40.153Z,42.93
2019-02-02T11:02:49.116Z,42.77
2019-02-02T11:05:53.569Z,42.47
2019-02-02T11:09:03.998Z,42.00
2019-02-02T11:12:07.872Z,41.53
2019-02-02T11:15:13.356Z,40.67
2019-02-02T11:18:17.368Z,40.10
2019-02-02T11:21:21.387Z,40.50
2019-02-02T11:24:25.154Z,53.60
2019-02-02T11:27:29.297Z,66.73
2019-02-02T11:30:35.040Z,64.83
2019-02-02T11:33:39.075Z,62.63
2019-02-02T11:36:43.835Z,50.30
2019-02-02T11:39:47.717Z,48.37
2019-02-02T11:42:51.409Z,45.97
2019-02-02T11:45:55.297Z,46.13
2019-02-02T11:48:59.174Z,47.83
2019-02-02T11:52:03.070Z,45.40
2019-02-02T11:55:07.305Z,44.70
2019-02-02T11:58:10.980Z,43.97
2019-02-02T12:01:14.569Z,42.83
2019-02-02T12:04:18.881Z,43.03
2019-02-02T12:07:22.917Z,42.60
2019-02-02T12:10:27.512Z,41.40
2019-02-02T12:13:31.161Z,74.57
2019-02-02T12:16:34.869Z,122.50
2019-02-02T12:19:39.652Z,97.47
2019-02-02T12:22:43.579Z,327.60
2019-02-02T12:25:47.174Z,196.13
2019-02-02T12:28:51.144Z,174.07
2019-02-02T12:31:54.868Z,168.03
2019-02-02T12:34:58.791Z,142.27
2019-02-02T12:38:02.802Z,105.67
2019-02-02T12:41:06.577Z,106.17
2019-02-02T12:44:10.287Z,91.97
2019-02-02T12:47:14.605Z,84.03
2019-02-02T12:50:18.446Z,78.60
2019-02-02T12:53:22.670Z,75.97
2019-02-02T12:56:26.280Z,69.37
2019-02-02T12:59:31.695Z,69.50
2019-02-02T13:02:38.207Z,64.07
2019-02-02T13:05:41.233Z,99.57
2019-02-02T13:08:45.118Z,173.10
2019-02-02T13:11:49.270Z,190.73
2019-02-02T13:14:52.866Z,167.83
2019-02-02T13:17:56.520Z,148.00
2019-02-02T13:21:00.106Z,134.37
2019-02-02T13:24:03.979Z,123.33
2019-02-02T13:27:07.552Z,115.43
2019-02-02T13:30:14.399Z,108.13
2019-02-02T13:33:18.302Z,108.60
2019-02-02T13:36:22.467Z,104.00
2019-02-02T13:39:26.070Z,100.40
2019-02-02T13:42:29.984Z,98.27
2019-02-02T13:45:34.012Z,96.17
2019-02-02T13:48:37.934Z,93.50
2019-02-02T13:51:41.671Z,90.83
2019-02-02T13:54:45.243Z,90.03
2019-02-02T13:57:48.985Z,89.03
2019-02-02T14:00:52.571Z,85.37
2019-02-02T14:03:56.153Z,83.17
2019-02-02T14:07:00.077Z,83.13
2019-02-02T14:10:04.554Z,82.40
2019-02-02T14:13:08.136Z,77.70
2019-02-02T14:16:11.703Z,78.53
2019-02-02T14:19:15.638Z,75.03
2019-02-02T14:22:19.219Z,72.93
2019-02-02T14:25:22.857Z,74.40
2019-02-02T14:28:28.472Z,70.13
2019-02-02T14:31:32.054Z,71.33
2019-02-02T14:34:40.104Z,68.20
2019-02-02T14:37:40.923Z,69.30
2019-02-02T14:40:45.128Z,68.67
2019-02-02T14:43:48.727Z,66.10
2019-02-02T14:46:52.314Z,66.73
2019-02-02T14:49:56.208Z,65.00
2019-02-02T14:52:59.782Z,56.73
2019-02-02T14:56:03.377Z,59.53
2019-02-02T14:59:07.040Z,57.63
2019-02-02T15:02:10.869Z,58.33
2019-02-02T15:05:14.927Z,55.10
2019-02-02T15:08:18.526Z,54.23
2019-02-02T15:11:22.109Z,54.43
2019-02-02T15:14:25.695Z,53.07
2019-02-02T15:17:29.819Z,51.63
2019-02-02T15:20:35.542Z,51.93
2019-02-02T15:23:39.197Z,49.53
2019-02-02T15:26:43.102Z,49.63
2019-02-02T15:29:46.972Z,49.00
2019-02-02T15:32:50.634Z,49.87
2019-02-02T15:35:55.086Z,48.47
2019-02-02T15:38:58.753Z,47.33
2019-02-02T15:42:02.644Z,47.50
2019-02-02T15:45:07.878Z,47.40
2019-02-02T15:48:11.487Z,44.87
2019-02-02T15:51:15.300Z,54.27
2019-02-02T15:54:18.878Z,51.57
2019-02-02T15:57:22.802Z,52.37
2019-02-02T16:00:32.163Z,78.40
2019-02-02T16:03:36.075Z,74.63
2019-02-02T16:06:39.747Z,73.23
2019-02-02T16:09:43.675Z,69.53
2019-02-02T16:12:47.596Z,70.80
2019-02-02T16:15:51.157Z,67.77
2019-02-02T16:18:54.996Z,70.40
2019-02-02T16:21:58.580Z,67.27
2019-02-02T16:25:02.144Z,62.17
2019-02-02T16:28:06.636Z,56.63
2019-02-02T16:31:10.193Z,54.77
2019-02-02T16:34:14.034Z,53.30
2019-02-02T16:37:17.666Z,49.67
2019-02-02T16:40:22.847Z,50.17
2019-02-02T16:43:26.495Z,48.70
2019-02-02T16:46:30.061Z,49.00
2019-02-02T16:49:33.805Z,45.77
2019-02-02T16:52:37.373Z,46.37
2019-02-02T16:55:41.746Z,44.80
2019-02-02T16:58:45.326Z,44.57
2019-02-02T17:01:48.886Z,42.87
2019-02-02T17:04:52.455Z,42.13
2019-02-02T17:07:56.572Z,42.57
2019-02-02T17:11:00.147Z,42.63
2019-02-02T17:14:04.481Z,41.03
2019-02-02T17:17:08.484Z,40.20
2019-02-02T17:20:14.528Z,40.33
2019-02-02T17:23:19.516Z,38.87
2019-02-02T17:26:23.869Z,38.93
2019-02-02T17:29:27.442Z,38.17
2019-02-02T17:32:31.661Z,36.70
2019-02-02T17:35:35.572Z,37.37
2019-02-02T17:38:39.160Z,38.03
2019-02-02T17:41:43.395Z,36.53
2019-02-02T17:44:47.594Z,36.23
2019-02-02T17:47:51.743Z,36.40
2019-02-02T17:50:55.906Z,35.03
2019-02-02T17:53:59.484Z,34.87
2019-02-02T17:57:03.077Z,34.80
2019-02-02T18:00:20.188Z,68.10
2019-02-02T18:03:24.270Z,126.57
2019-02-02T18:06:27.831Z,94.87
2019-02-02T18:09:31.753Z,98.70
2019-02-02T18:12:35.696Z,71.27
2019-02-02T18:15:39.856Z,75.90
2019-02-02T18:18:43.505Z,73.90
2019-02-02T18:21:47.720Z,66.30
2019-02-02T18:24:51.601Z,66.30
2019-02-02T18:27:55.503Z,66.00
2019-02-02T18:30:59.106Z,62.73
2019-02-02T18:34:03.286Z,55.83
2019-02-02T18:37:06.847Z,66.50
2019-02-02T18:40:12.390Z,76.57
2019-02-02T18:43:16.811Z,77.53
2019-02-02T18:46:20.443Z,70.57
2019-02-02T18:49:24.034Z,65.97
2019-02-02T18:52:27.815Z,66.00
2019-02-02T18:55:37.735Z,65.83
2019-02-02T18:58:41.583Z,61.37
2019-02-02T19:01:45.326Z,59.93
2019-02-02T19:04:49.178Z,58.57
2019-02-02T19:07:52.742Z,54.17
2019-02-02T19:10:56.306Z,55.10
2019-02-02T19:13:59.900Z,96.57
2019-02-02T19:17:04.131Z,93.13
2019-02-02T19:20:10.305Z,97.83
2019-02-02T19:23:24.592Z,87.97
2019-02-02T19:26:19.245Z,80.07
2019-02-02T19:29:23.093Z,76.27
2019-02-02T19:32:26.943Z,72.97
2019-02-02T19:35:30.834Z,69.70
2019-02-02T19:38:34.415Z,68.93
2019-02-02T19:41:37.975Z,66.40
2019-02-02T19:44:41.565Z,64.87
2019-02-02T19:47:45.284Z,62.70
2019-02-02T19:50:49.393Z,62.00
2019-02-02T19:53:53.299Z,60.37
2019-02-02T19:56:56.880Z,59.07
2019-02-02T20:00:02.743Z,57.80
2019-02-02T20:03:06.144Z,58.27
2019-02-02T20:06:09.778Z,57.13
2019-02-02T20:09:13.819Z,55.80
2019-02-02T20:12:17.996Z,54.00
2019-02-02T20:15:23.145Z,54.40
2019-02-02T20:18:27.048Z,53.80
2019-02-02T20:21:31.235Z,50.07
2019-02-02T20:24:35.099Z,49.83
2019-02-02T20:27:38.702Z,50.87
2019-02-02T20:30:42.582Z,49.17
2019-02-02T20:33:46.180Z,48.33
2019-02-02T20:36:50.079Z,47.20
2019-02-02T20:39:53.661Z,46.17
2019-02-02T20:42:57.251Z,45.83
2019-02-02T20:46:01.217Z,45.80
2019-02-02T20:49:07.907Z,45.10
2019-02-02T20:52:10.291Z,45.27
2019-02-02T20:55:16.281Z,43.17
2019-02-02T20:58:19.873Z,44.20
2019-02-02T21:01:23.458Z,44.13
2019-02-02T21:04:27.045Z,65.93
2019-02-02T21:07:31.257Z,72.93
2019-02-02T21:10:35.147Z,76.73
2019-02-02T21:13:38.970Z,74.07
2019-02-02T21:16:42.919Z,67.57
2019-02-02T21:19:46.737Z,61.53
2019-02-02T21:22:50.597Z,64.90
2019-02-02T21:25:54.174Z,69.87
2019-02-02T21:28:58.332Z,67.60
2019-02-02T21:32:01.949Z,65.73
2019-02-02T21:35:05.939Z,62.03
2019-02-02T21:38:09.670Z,61.00
2019-02-02T21:41:13.772Z,57.87
2019-02-02T21:44:17.360Z,57.30
2019-02-02T21:47:21.707Z,56.33
2019-02-02T21:50:25.381Z,55.47
2019-02-02T21:53:29.216Z,53.83
2019-02-02T21:56:33.116Z,53.23
2019-02-02T21:59:36.938Z,51.90
2019-02-02T22:02:40.510Z,50.27
2019-02-02T22:05:44.178Z,50.63
2019-02-02T22:08:48.053Z,50.10
2019-02-02T22:11:51.877Z,48.23
2019-02-02T22:14:55.459Z,47.30
2019-02-02T22:17:59.210Z,47.37
2019-02-02T22:21:03.079Z,47.63
2019-02-02T22:24:06.655Z,46.37
2019-02-02T22:27:10.502Z,45.77
2019-02-02T22:30:21.878Z,45.27
2019-02-02T22:33:25.897Z,45.53
2019-02-02T22:36:29.757Z,42.13
2019-02-02T22:39:33.577Z,43.43
2019-02-02T22:42:37.162Z,43.50
2019-02-02T22:45:40.774Z,42.23
2019-02-02T22:48:44.354Z,41.73
2019-02-02T22:51:47.920Z,53.83
2019-02-02T22:54:51.576Z,51.30
2019-02-02T22:57:55.884Z,58.30
2019-02-02T23:01:33.087Z,60.57
2019-02-02T23:04:53.003Z,57.30
2019-02-02T23:08:17.273Z,55.33
2019-02-02T23:11:37.928Z,54.70
2019-02-02T23:14:55.013Z,52.40
2019-02-02T23:17:58.984Z,53.63
2019-02-02T23:21:02.789Z,52.93
2019-02-02T23:24:06.407Z,52.27
2019-02-02T23:27:10.566Z,50.20
2019-02-02T23:30:14.756Z,51.17
2019-02-02T23:33:18.607Z,50.77
2019-02-02T23:36:22.539Z,49.30
2019-02-02T23:39:26.109Z,47.77
2019-02-02T23:42:29.693Z,46.87
2019-02-02T23:45:33.274Z,48.83
2019-02-02T23:48:36.887Z,48.63
2019-02-02T23:51:40.691Z,47.07
2019-02-02T23:54:44.667Z,47.57
2019-02-02T23:57:48.608Z,46.00
